Herschel, Canada
Current Conditions -  °F | °C
As of 12:00 AM on Saturday 29 Nov 2014 (Local Time) from CYKY Reporting Station
Light Snow Light Snow  
Wind Chill: -26°   Ceiling: 800
Heat Index: -4°   Visibility: 3mi
Dew Point: -11°   Wind: 17mph
Humidity: 71%   Direction: 330°NNW
Pressure: 29.64"   Gusts: 25mph
Location:  51.63°N, 108.35°W
Report Text: CYKY 290600Z 33015G22KT 3SM -SN DRSN OVC008 M20/M24 A2964 RMK SC8 SLP096
Loading
Personal Weather Stations






























Interactive Weather Map New forecast layout! Learn more

10-Day Weather Forecast

Advertisements
Track Severe Weather on mobile